sensor_id;sensor_type;location;lat;lon;timestamp;P1;durP1;ratioP1;P2;durP2;ratioP2
46447;SDS011;32145;50.390;30.778;2022-07-29T00:01:33;5.45;;;3.10;;
46447;SDS011;32145;50.390;30.778;2022-07-29T00:04:17;3.90;;;2.80;;
46447;SDS011;32145;50.390;30.778;2022-07-29T00:07:02;6.97;;;3.10;;
46447;SDS011;32145;50.390;30.778;2022-07-29T00:09:46;6.22;;;3.10;;
46447;SDS011;32145;50.390;30.778;2022-07-29T00:12:32;5.53;;;3.30;;
46447;SDS011;32145;50.390;30.778;2022-07-29T00:15:16;4.75;;;2.78;;
46447;SDS011;32145;50.390;30.778;2022-07-29T00:17:59;5.45;;;3.25;;
46447;SDS011;32145;50.390;30.778;2022-07-29T00:20:44;4.82;;;3.00;;
46447;SDS011;32145;50.390;30.778;2022-07-29T00:23:28;9.82;;;3.00;;
46447;SDS011;32145;50.390;30.778;2022-07-29T00:26:12;5.90;;;3.22;;
46447;SDS011;32145;50.390;30.778;2022-07-29T00:28:57;4.45;;;2.60;;
46447;SDS011;32145;50.390;30.778;2022-07-29T00:31:42;5.25;;;3.30;;
46447;SDS011;32145;50.390;30.778;2022-07-29T00:34:26;4.10;;;2.80;;
46447;SDS011;32145;50.390;30.778;2022-07-29T00:37:10;6.03;;;3.00;;
46447;SDS011;32145;50.390;30.778;2022-07-29T00:39:54;3.85;;;3.03;;
46447;SDS011;32145;50.390;30.778;2022-07-29T00:42:42;6.40;;;3.20;;
46447;SDS011;32145;50.390;30.778;2022-07-29T00:45:28;5.95;;;3.00;;
46447;SDS011;32145;50.390;30.778;2022-07-29T00:48:13;6.03;;;2.90;;
46447;SDS011;32145;50.390;30.778;2022-07-29T00:50:58;5.72;;;3.15;;
46447;SDS011;32145;50.390;30.778;2022-07-29T00:53:43;5.53;;;3.10;;
46447;SDS011;32145;50.390;30.778;2022-07-29T00:56:29;6.30;;;2.75;;
46447;SDS011;32145;50.390;30.778;2022-07-29T00:59:14;5.07;;;3.03;;
46447;SDS011;32145;50.390;30.778;2022-07-29T01:02:00;5.53;;;2.97;;
46447;SDS011;32145;50.390;30.778;2022-07-29T01:04:44;6.65;;;3.33;;
46447;SDS011;32145;50.390;30.778;2022-07-29T01:07:29;7.85;;;3.05;;
46447;SDS011;32145;50.390;30.778;2022-07-29T01:10:14;4.18;;;2.67;;
46447;SDS011;32145;50.390;30.778;2022-07-29T01:12:59;4.43;;;3.05;;
46447;SDS011;32145;50.390;30.778;2022-07-29T01:15:45;5.30;;;2.70;;
46447;SDS011;32145;50.390;30.778;2022-07-29T01:18:34;6.32;;;3.33;;
46447;SDS011;32145;50.390;30.778;2022-07-29T01:21:35;5.25;;;3.22;;
46447;SDS011;32145;50.390;30.778;2022-07-29T01:24:35;5.43;;;2.88;;
46447;SDS011;32145;50.390;30.778;2022-07-29T01:27:37;4.32;;;3.10;;
46447;SDS011;32145;50.390;30.778;2022-07-29T01:30:30;6.57;;;3.03;;
46447;SDS011;32145;50.390;30.778;2022-07-29T01:33:18;6.75;;;3.00;;
46447;SDS011;32145;50.390;30.778;2022-07-29T01:36:06;7.18;;;3.10;;
46447;SDS011;32145;50.390;30.778;2022-07-29T01:41:43;5.78;;;3.20;;
46447;SDS011;32145;50.390;30.778;2022-07-29T01:44:35;4.47;;;2.80;;
46447;SDS011;32145;50.390;30.778;2022-07-29T01:47:27;6.78;;;2.80;;
46447;SDS011;32145;50.390;30.778;2022-07-29T01:50:17;5.25;;;3.17;;
46447;SDS011;32145;50.390;30.778;2022-07-29T01:53:03;5.50;;;2.50;;
46447;SDS011;32145;50.390;30.778;2022-07-29T01:55:50;5.70;;;3.00;;
46447;SDS011;32145;50.390;30.778;2022-07-29T01:58:36;6.95;;;2.95;;
46447;SDS011;32145;50.390;30.778;2022-07-29T02:01:24;5.45;;;2.83;;
46447;SDS011;32145;50.390;30.778;2022-07-29T02:04:11;5.40;;;2.58;;
46447;SDS011;32145;50.390;30.778;2022-07-29T02:06:57;5.50;;;2.72;;
46447;SDS011;32145;50.390;30.778;2022-07-29T02:09:44;3.90;;;2.58;;
46447;SDS011;32145;50.390;30.778;2022-07-29T02:12:30;5.15;;;2.70;;
46447;SDS011;32145;50.390;30.778;2022-07-29T02:15:17;6.45;;;2.85;;
46447;SDS011;32145;50.390;30.778;2022-07-29T02:18:04;6.57;;;2.95;;
46447;SDS011;32145;50.390;30.778;2022-07-29T02:20:52;5.75;;;3.05;;
46447;SDS011;32145;50.390;30.778;2022-07-29T02:23:38;4.90;;;2.70;;
46447;SDS011;32145;50.390;30.778;2022-07-29T02:26:23;4.30;;;2.65;;
46447;SDS011;32145;50.390;30.778;2022-07-29T02:29:09;3.95;;;2.67;;
46447;SDS011;32145;50.390;30.778;2022-07-29T02:31:55;5.40;;;2.85;;
46447;SDS011;32145;50.390;30.778;2022-07-29T02:34:42;6.03;;;2.90;;
46447;SDS011;32145;50.390;30.778;2022-07-29T02:37:30;7.63;;;3.00;;
46447;SDS011;32145;50.390;30.778;2022-07-29T02:40:15;6.45;;;2.95;;
46447;SDS011;32145;50.390;30.778;2022-07-29T02:43:00;5.13;;;3.08;;
46447;SDS011;32145;50.390;30.778;2022-07-29T02:45:47;4.68;;;2.88;;
46447;SDS011;32145;50.390;30.778;2022-07-29T02:48:36;4.75;;;2.90;;
46447;SDS011;32145;50.390;30.778;2022-07-29T02:51:24;8.43;;;3.28;;
46447;SDS011;32145;50.390;30.778;2022-07-29T02:54:23;4.13;;;2.85;;
46447;SDS011;32145;50.390;30.778;2022-07-29T02:57:11;5.18;;;3.00;;
46447;SDS011;32145;50.390;30.778;2022-07-29T03:00:04;6.88;;;2.90;;
46447;SDS011;32145;50.390;30.778;2022-07-29T03:02:52;5.70;;;3.30;;
46447;SDS011;32145;50.390;30.778;2022-07-29T03:05:37;4.15;;;2.95;;
46447;SDS011;32145;50.390;30.778;2022-07-29T03:08:23;5.65;;;3.13;;
46447;SDS011;32145;50.390;30.778;2022-07-29T03:11:09;5.32;;;2.92;;
46447;SDS011;32145;50.390;30.778;2022-07-29T03:13:54;5.20;;;2.65;;
46447;SDS011;32145;50.390;30.778;2022-07-29T03:16:39;7.57;;;3.00;;
46447;SDS011;32145;50.390;30.778;2022-07-29T03:19:23;7.10;;;3.20;;
46447;SDS011;32145;50.390;30.778;2022-07-29T03:22:08;5.35;;;2.97;;
46447;SDS011;32145;50.390;30.778;2022-07-29T03:24:53;6.50;;;3.03;;
46447;SDS011;32145;50.390;30.778;2022-07-29T03:27:38;7.22;;;2.90;;
46447;SDS011;32145;50.390;30.778;2022-07-29T03:30:23;5.97;;;2.70;;
46447;SDS011;32145;50.390;30.778;2022-07-29T03:33:07;6.60;;;3.05;;
46447;SDS011;32145;50.390;30.778;2022-07-29T03:35:51;6.43;;;3.15;;
46447;SDS011;32145;50.390;30.778;2022-07-29T03:38:35;7.47;;;3.47;;
46447;SDS011;32145;50.390;30.778;2022-07-29T03:41:21;6.43;;;3.60;;
46447;SDS011;32145;50.390;30.778;2022-07-29T03:44:09;6.85;;;3.45;;
46447;SDS011;32145;50.390;30.778;2022-07-29T03:46:55;8.80;;;3.33;;
46447;SDS011;32145;50.390;30.778;2022-07-29T03:49:44;5.43;;;2.90;;
46447;SDS011;32145;50.390;30.778;2022-07-29T03:52:32;5.07;;;3.15;;
46447;SDS011;32145;50.390;30.778;2022-07-29T03:55:16;6.40;;;2.85;;
46447;SDS011;32145;50.390;30.778;2022-07-29T03:58:01;5.65;;;3.00;;
46447;SDS011;32145;50.390;30.778;2022-07-29T04:00:47;6.72;;;2.78;;
46447;SDS011;32145;50.390;30.778;2022-07-29T04:03:31;4.95;;;2.70;;
46447;SDS011;32145;50.390;30.778;2022-07-29T04:06:16;6.45;;;2.55;;
46447;SDS011;32145;50.390;30.778;2022-07-29T04:09:00;6.47;;;2.70;;
46447;SDS011;32145;50.390;30.778;2022-07-29T04:11:44;5.65;;;3.17;;
46447;SDS011;32145;50.390;30.778;2022-07-29T04:14:29;6.95;;;3.08;;
46447;SDS011;32145;50.390;30.778;2022-07-29T04:17:15;6.38;;;3.10;;
46447;SDS011;32145;50.390;30.778;2022-07-29T04:19:59;6.43;;;3.08;;
46447;SDS011;32145;50.390;30.778;2022-07-29T04:22:43;5.85;;;3.05;;
46447;SDS011;32145;50.390;30.778;2022-07-29T04:25:27;7.60;;;3.00;;
46447;SDS011;32145;50.390;30.778;2022-07-29T04:28:11;15.23;;;3.63;;
46447;SDS011;32145;50.390;30.778;2022-07-29T04:30:55;5.38;;;2.33;;
46447;SDS011;32145;50.390;30.778;2022-07-29T04:33:40;5.35;;;2.25;;
46447;SDS011;32145;50.390;30.778;2022-07-29T04:36:24;4.95;;;2.40;;
46447;SDS011;32145;50.390;30.778;2022-07-29T04:39:09;11.65;;;3.25;;
46447;SDS011;32145;50.390;30.778;2022-07-29T04:41:53;9.30;;;3.30;;
46447;SDS011;32145;50.390;30.778;2022-07-29T04:44:37;8.68;;;2.95;;
46447;SDS011;32145;50.390;30.778;2022-07-29T04:47:21;7.10;;;2.60;;
46447;SDS011;32145;50.390;30.778;2022-07-29T04:50:07;5.85;;;2.15;;
46447;SDS011;32145;50.390;30.778;2022-07-29T04:52:52;8.27;;;2.30;;
46447;SDS011;32145;50.390;30.778;2022-07-29T04:55:36;4.97;;;1.83;;
46447;SDS011;32145;50.390;30.778;2022-07-29T04:58:20;7.05;;;2.13;;
46447;SDS011;32145;50.390;30.778;2022-07-29T05:01:04;3.67;;;1.55;;
46447;SDS011;32145;50.390;30.778;2022-07-29T05:03:48;5.65;;;1.90;;
46447;SDS011;32145;50.390;30.778;2022-07-29T05:06:34;4.30;;;1.88;;
46447;SDS011;32145;50.390;30.778;2022-07-29T05:09:17;3.80;;;1.80;;
46447;SDS011;32145;50.390;30.778;2022-07-29T05:12:01;4.18;;;1.83;;
46447;SDS011;32145;50.390;30.778;2022-07-29T05:14:46;4.43;;;1.80;;
46447;SDS011;32145;50.390;30.778;2022-07-29T05:17:30;9.10;;;2.28;;
46447;SDS011;32145;50.390;30.778;2022-07-29T05:20:14;6.13;;;2.35;;
46447;SDS011;32145;50.390;30.778;2022-07-29T05:22:59;6.95;;;2.40;;
46447;SDS011;32145;50.390;30.778;2022-07-29T05:25:44;10.85;;;2.40;;
46447;SDS011;32145;50.390;30.778;2022-07-29T05:28:28;6.82;;;2.40;;
46447;SDS011;32145;50.390;30.778;2022-07-29T05:31:12;5.95;;;2.38;;
46447;SDS011;32145;50.390;30.778;2022-07-29T05:33:56;6.28;;;2.20;;
46447;SDS011;32145;50.390;30.778;2022-07-29T05:36:41;5.05;;;2.38;;
46447;SDS011;32145;50.390;30.778;2022-07-29T05:39:26;6.72;;;2.70;;
46447;SDS011;32145;50.390;30.778;2022-07-29T05:42:10;6.45;;;2.80;;
46447;SDS011;32145;50.390;30.778;2022-07-29T05:44:54;7.72;;;2.17;;
46447;SDS011;32145;50.390;30.778;2022-07-29T05:47:38;6.35;;;2.05;;
46447;SDS011;32145;50.390;30.778;2022-07-29T05:50:23;3.60;;;1.80;;
46447;SDS011;32145;50.390;30.778;2022-07-29T05:53:07;5.28;;;1.70;;
46447;SDS011;32145;50.390;30.778;2022-07-29T05:55:53;2.47;;;1.40;;
46447;SDS011;32145;50.390;30.778;2022-07-29T05:58:37;11.80;;;1.70;;
46447;SDS011;32145;50.390;30.778;2022-07-29T06:01:22;4.20;;;1.58;;
46447;SDS011;32145;50.390;30.778;2022-07-29T06:04:06;9.27;;;1.88;;
46447;SDS011;32145;50.390;30.778;2022-07-29T06:06:51;3.63;;;1.55;;
46447;SDS011;32145;50.390;30.778;2022-07-29T06:09:35;6.25;;;1.60;;
46447;SDS011;32145;50.390;30.778;2022-07-29T06:12:21;8.70;;;1.88;;
46447;SDS011;32145;50.390;30.778;2022-07-29T06:15:06;4.05;;;1.60;;
46447;SDS011;32145;50.390;30.778;2022-07-29T06:17:51;4.43;;;1.50;;
46447;SDS011;32145;50.390;30.778;2022-07-29T06:20:35;6.70;;;1.70;;
46447;SDS011;32145;50.390;30.778;2022-07-29T06:23:19;6.18;;;1.35;;
46447;SDS011;32145;50.390;30.778;2022-07-29T06:26:04;5.15;;;1.20;;
46447;SDS011;32145;50.390;30.778;2022-07-29T06:28:50;6.53;;;1.20;;
46447;SDS011;32145;50.390;30.778;2022-07-29T06:31:34;4.90;;;1.30;;
46447;SDS011;32145;50.390;30.778;2022-07-29T06:34:18;5.70;;;1.52;;
46447;SDS011;32145;50.390;30.778;2022-07-29T06:37:05;4.80;;;1.23;;
46447;SDS011;32145;50.390;30.778;2022-07-29T06:39:49;4.53;;;1.40;;
46447;SDS011;32145;50.390;30.778;2022-07-29T06:42:34;4.03;;;1.50;;
46447;SDS011;32145;50.390;30.778;2022-07-29T06:45:19;6.07;;;1.38;;
46447;SDS011;32145;50.390;30.778;2022-07-29T06:48:04;5.30;;;1.50;;
46447;SDS011;32145;50.390;30.778;2022-07-29T06:50:48;3.10;;;1.20;;
46447;SDS011;32145;50.390;30.778;2022-07-29T06:53:32;7.35;;;1.50;;
46447;SDS011;32145;50.390;30.778;2022-07-29T06:56:17;4.63;;;1.23;;
46447;SDS011;32145;50.390;30.778;2022-07-29T06:59:01;3.42;;;1.35;;
46447;SDS011;32145;50.390;30.778;2022-07-29T07:01:46;10.55;;;3.75;;
46447;SDS011;32145;50.390;30.778;2022-07-29T07:04:31;4.93;;;1.80;;
46447;SDS011;32145;50.390;30.778;2022-07-29T07:07:15;2.90;;;1.40;;
46447;SDS011;32145;50.390;30.778;2022-07-29T07:09:59;3.60;;;1.40;;
46447;SDS011;32145;50.390;30.778;2022-07-29T07:12:43;2.88;;;1.30;;
46447;SDS011;32145;50.390;30.778;2022-07-29T07:15:27;3.38;;;1.83;;
46447;SDS011;32145;50.390;30.778;2022-07-29T07:18:13;10.07;;;1.60;;
46447;SDS011;32145;50.390;30.778;2022-07-29T07:20:58;5.15;;;1.52;;
46447;SDS011;32145;50.390;30.778;2022-07-29T07:23:42;4.90;;;1.50;;
46447;SDS011;32145;50.390;30.778;2022-07-29T07:26:26;6.13;;;2.05;;
46447;SDS011;32145;50.390;30.778;2022-07-29T07:29:11;5.32;;;2.03;;
46447;SDS011;32145;50.390;30.778;2022-07-29T07:31:55;4.68;;;2.10;;
46447;SDS011;32145;50.390;30.778;2022-07-29T07:34:41;6.80;;;1.90;;
46447;SDS011;32145;50.390;30.778;2022-07-29T07:37:25;4.70;;;1.65;;
46447;SDS011;32145;50.390;30.778;2022-07-29T07:40:10;4.20;;;1.65;;
46447;SDS011;32145;50.390;30.778;2022-07-29T07:42:55;5.78;;;1.80;;
46447;SDS011;32145;50.390;30.778;2022-07-29T07:45:39;6.07;;;2.17;;
46447;SDS011;32145;50.390;30.778;2022-07-29T07:48:23;6.47;;;2.30;;
46447;SDS011;32145;50.390;30.778;2022-07-29T07:51:08;6.40;;;2.03;;
46447;SDS011;32145;50.390;30.778;2022-07-29T07:53:52;4.95;;;2.20;;
46447;SDS011;32145;50.390;30.778;2022-07-29T07:56:36;6.30;;;3.08;;
46447;SDS011;32145;50.390;30.778;2022-07-29T07:59:20;5.22;;;2.55;;
46447;SDS011;32145;50.390;30.778;2022-07-29T08:02:04;5.65;;;2.35;;
46447;SDS011;32145;50.390;30.778;2022-07-29T08:04:48;7.10;;;2.10;;
46447;SDS011;32145;50.390;30.778;2022-07-29T08:07:36;3.97;;;2.10;;
46447;SDS011;32145;50.390;30.778;2022-07-29T08:10:21;4.10;;;2.20;;
46447;SDS011;32145;50.390;30.778;2022-07-29T08:13:06;6.35;;;2.20;;
46447;SDS011;32145;50.390;30.778;2022-07-29T08:15:51;4.30;;;2.20;;
46447;SDS011;32145;50.390;30.778;2022-07-29T08:18:35;7.80;;;2.10;;
46447;SDS011;32145;50.390;30.778;2022-07-29T08:21:18;9.02;;;2.20;;
46447;SDS011;32145;50.390;30.778;2022-07-29T08:24:04;4.95;;;2.25;;
46447;SDS011;32145;50.390;30.778;2022-07-29T08:26:49;5.00;;;2.53;;
46447;SDS011;32145;50.390;30.778;2022-07-29T08:29:33;6.43;;;2.40;;
46447;SDS011;32145;50.390;30.778;2022-07-29T08:32:18;7.63;;;2.63;;
46447;SDS011;32145;50.390;30.778;2022-07-29T08:35:02;5.47;;;2.50;;
46447;SDS011;32145;50.390;30.778;2022-07-29T08:37:46;5.50;;;2.40;;
46447;SDS011;32145;50.390;30.778;2022-07-29T08:40:31;5.28;;;2.17;;
46447;SDS011;32145;50.390;30.778;2022-07-29T08:43:16;7.50;;;2.15;;
46447;SDS011;32145;50.390;30.778;2022-07-29T08:46:00;5.63;;;2.42;;
46447;SDS011;32145;50.390;30.778;2022-07-29T08:48:44;4.18;;;2.03;;
46447;SDS011;32145;50.390;30.778;2022-07-29T08:51:29;4.57;;;1.85;;
46447;SDS011;32145;50.390;30.778;2022-07-29T08:54:16;3.53;;;2.10;;
46447;SDS011;32145;50.390;30.778;2022-07-29T08:57:02;5.00;;;1.88;;
46447;SDS011;32145;50.390;30.778;2022-07-29T08:59:47;6.63;;;1.95;;
46447;SDS011;32145;50.390;30.778;2022-07-29T09:02:35;6.18;;;1.80;;
46447;SDS011;32145;50.390;30.778;2022-07-29T09:05:22;3.33;;;1.92;;
46447;SDS011;32145;50.390;30.778;2022-07-29T09:08:08;4.53;;;1.83;;
46447;SDS011;32145;50.390;30.778;2022-07-29T09:10:53;4.22;;;2.20;;
46447;SDS011;32145;50.390;30.778;2022-07-29T09:13:38;3.42;;;1.70;;
46447;SDS011;32145;50.390;30.778;2022-07-29T09:16:23;5.50;;;2.13;;
46447;SDS011;32145;50.390;30.778;2022-07-29T09:19:10;3.70;;;2.22;;
46447;SDS011;32145;50.390;30.778;2022-07-29T09:22:04;4.00;;;2.10;;
46447;SDS011;32145;50.390;30.778;2022-07-29T09:24:49;3.10;;;1.70;;
46447;SDS011;32145;50.390;30.778;2022-07-29T09:27:33;4.03;;;2.10;;
46447;SDS011;32145;50.390;30.778;2022-07-29T09:30:19;4.35;;;1.80;;
46447;SDS011;32145;50.390;30.778;2022-07-29T09:33:03;6.28;;;2.22;;
46447;SDS011;32145;50.390;30.778;2022-07-29T09:35:58;8.93;;;2.38;;
46447;SDS011;32145;50.390;30.778;2022-07-29T09:38:42;5.53;;;2.00;;
46447;SDS011;32145;50.390;30.778;2022-07-29T09:41:44;3.85;;;2.50;;
46447;SDS011;32145;50.390;30.778;2022-07-29T09:44:43;5.47;;;2.13;;
46447;SDS011;32145;50.390;30.778;2022-07-29T09:50:34;5.80;;;2.30;;
46447;SDS011;32145;50.390;30.778;2022-07-29T09:53:29;5.38;;;2.05;;
46447;SDS011;32145;50.390;30.778;2022-07-29T09:56:14;5.72;;;2.30;;
46447;SDS011;32145;50.390;30.778;2022-07-29T09:59:04;3.85;;;2.15;;
46447;SDS011;32145;50.390;30.778;2022-07-29T10:01:49;3.50;;;1.70;;
46447;SDS011;32145;50.390;30.778;2022-07-29T10:04:38;5.18;;;1.92;;
46447;SDS011;32145;50.390;30.778;2022-07-29T10:07:24;3.45;;;1.50;;
46447;SDS011;32145;50.390;30.778;2022-07-29T10:10:08;3.60;;;1.83;;
46447;SDS011;32145;50.390;30.778;2022-07-29T10:12:54;6.95;;;1.70;;
46447;SDS011;32145;50.390;30.778;2022-07-29T10:15:39;4.15;;;1.90;;
46447;SDS011;32145;50.390;30.778;2022-07-29T10:18:25;6.80;;;1.88;;
46447;SDS011;32145;50.390;30.778;2022-07-29T10:21:11;3.05;;;1.52;;
46447;SDS011;32145;50.390;30.778;2022-07-29T10:23:56;7.20;;;1.77;;
46447;SDS011;32145;50.390;30.778;2022-07-29T10:26:42;6.60;;;1.73;;
46447;SDS011;32145;50.390;30.778;2022-07-29T10:29:28;5.07;;;1.80;;
46447;SDS011;32145;50.390;30.778;2022-07-29T10:32:16;6.43;;;2.15;;
46447;SDS011;32145;50.390;30.778;2022-07-29T10:35:15;4.63;;;1.95;;
46447;SDS011;32145;50.390;30.778;2022-07-29T10:38:10;4.18;;;1.80;;
46447;SDS011;32145;50.390;30.778;2022-07-29T10:41:18;3.78;;;2.00;;
46447;SDS011;32145;50.390;30.778;2022-07-29T10:44:14;3.92;;;1.95;;
46447;SDS011;32145;50.390;30.778;2022-07-29T10:47:00;5.45;;;1.88;;
46447;SDS011;32145;50.390;30.778;2022-07-29T10:49:53;7.40;;;2.15;;
46447;SDS011;32145;50.390;30.778;2022-07-29T10:52:52;4.57;;;1.98;;
46447;SDS011;32145;50.390;30.778;2022-07-29T10:55:39;4.43;;;2.17;;
46447;SDS011;32145;50.390;30.778;2022-07-29T10:58:23;3.45;;;1.73;;
46447;SDS011;32145;50.390;30.778;2022-07-29T11:01:27;4.15;;;1.85;;
46447;SDS011;32145;50.390;30.778;2022-07-29T11:04:12;4.13;;;2.00;;
46447;SDS011;32145;50.390;30.778;2022-07-29T11:07:06;5.35;;;2.03;;
46447;SDS011;32145;50.390;30.778;2022-07-29T11:13:07;5.78;;;1.88;;
46447;SDS011;32145;50.390;30.778;2022-07-29T11:15:52;5.47;;;1.92;;
46447;SDS011;32145;50.390;30.778;2022-07-29T11:18:37;7.13;;;1.90;;
46447;SDS011;32145;50.390;30.778;2022-07-29T11:22:00;5.22;;;2.10;;
46447;SDS011;32145;50.390;30.778;2022-07-29T11:24:44;5.57;;;2.00;;
46447;SDS011;32145;50.390;30.778;2022-07-29T11:27:30;9.05;;;2.03;;
46447;SDS011;32145;50.390;30.778;2022-07-29T11:30:16;4.15;;;1.50;;
46447;SDS011;32145;50.390;30.778;2022-07-29T11:33:00;6.63;;;2.30;;
46447;SDS011;32145;50.390;30.778;2022-07-29T11:35:44;4.97;;;1.60;;
46447;SDS011;32145;50.390;30.778;2022-07-29T11:38:52;7.55;;;1.92;;
46447;SDS011;32145;50.390;30.778;2022-07-29T11:45:27;4.47;;;1.50;;
46447;SDS011;32145;50.390;30.778;2022-07-29T11:48:29;4.20;;;1.67;;
46447;SDS011;32145;50.390;30.778;2022-07-29T11:51:14;4.05;;;1.40;;
46447;SDS011;32145;50.390;30.778;2022-07-29T11:53:59;4.93;;;1.85;;
46447;SDS011;32145;50.390;30.778;2022-07-29T11:56:44;3.33;;;1.70;;
46447;SDS011;32145;50.390;30.778;2022-07-29T11:59:30;4.00;;;1.80;;
46447;SDS011;32145;50.390;30.778;2022-07-29T12:02:16;2.80;;;1.75;;
46447;SDS011;32145;50.390;30.778;2022-07-29T12:05:00;3.72;;;2.00;;
46447;SDS011;32145;50.390;30.778;2022-07-29T12:07:44;8.55;;;2.47;;
46447;SDS011;32145;50.390;30.778;2022-07-29T12:10:31;9.80;;;2.50;;
46447;SDS011;32145;50.390;30.778;2022-07-29T12:13:16;3.67;;;2.28;;
46447;SDS011;32145;50.390;30.778;2022-07-29T12:16:01;3.95;;;2.20;;
46447;SDS011;32145;50.390;30.778;2022-07-29T12:18:55;8.15;;;5.10;;
46447;SDS011;32145;50.390;30.778;2022-07-29T12:21:44;4.10;;;2.50;;
46447;SDS011;32145;50.390;30.778;2022-07-29T12:24:42;4.57;;;2.00;;
46447;SDS011;32145;50.390;30.778;2022-07-29T12:27:26;4.97;;;2.28;;
46447;SDS011;32145;50.390;30.778;2022-07-29T12:30:13;5.15;;;1.98;;
46447;SDS011;32145;50.390;30.778;2022-07-29T12:32:58;7.03;;;2.15;;
46447;SDS011;32145;50.390;30.778;2022-07-29T12:35:44;4.70;;;1.90;;
46447;SDS011;32145;50.390;30.778;2022-07-29T12:38:30;3.80;;;2.05;;
46447;SDS011;32145;50.390;30.778;2022-07-29T12:41:15;3.05;;;1.70;;
46447;SDS011;32145;50.390;30.778;2022-07-29T12:43:59;6.68;;;2.15;;
46447;SDS011;32145;50.390;30.778;2022-07-29T12:46:43;2.60;;;1.73;;
46447;SDS011;32145;50.390;30.778;2022-07-29T12:49:27;5.28;;;2.00;;
46447;SDS011;32145;50.390;30.778;2022-07-29T12:52:25;5.28;;;2.00;;
46447;SDS011;32145;50.390;30.778;2022-07-29T12:57:54;7.22;;;1.95;;
46447;SDS011;32145;50.390;30.778;2022-07-29T13:00:38;3.47;;;1.85;;
46447;SDS011;32145;50.390;30.778;2022-07-29T13:03:22;6.82;;;2.20;;
46447;SDS011;32145;50.390;30.778;2022-07-29T13:06:06;4.07;;;2.22;;
46447;SDS011;32145;50.390;30.778;2022-07-29T13:08:59;3.85;;;2.13;;
46447;SDS011;32145;50.390;30.778;2022-07-29T13:11:49;5.95;;;2.70;;
46447;SDS011;32145;50.390;30.778;2022-07-29T13:14:34;3.10;;;2.03;;
46447;SDS011;32145;50.390;30.778;2022-07-29T13:17:21;4.95;;;2.10;;
46447;SDS011;32145;50.390;30.778;2022-07-29T13:20:06;5.93;;;2.40;;
46447;SDS011;32145;50.390;30.778;2022-07-29T13:22:52;5.18;;;2.13;;
46447;SDS011;32145;50.390;30.778;2022-07-29T13:25:38;5.10;;;2.47;;
46447;SDS011;32145;50.390;30.778;2022-07-29T13:28:22;5.95;;;2.45;;
46447;SDS011;32145;50.390;30.778;2022-07-29T13:31:06;4.53;;;2.33;;
46447;SDS011;32145;50.390;30.778;2022-07-29T13:33:50;6.68;;;2.15;;
46447;SDS011;32145;50.390;30.778;2022-07-29T13:36:34;5.10;;;2.28;;
46447;SDS011;32145;50.390;30.778;2022-07-29T13:39:18;5.13;;;1.92;;
46447;SDS011;32145;50.390;30.778;2022-07-29T13:42:04;5.03;;;2.13;;
46447;SDS011;32145;50.390;30.778;2022-07-29T13:44:48;4.65;;;2.25;;
46447;SDS011;32145;50.390;30.778;2022-07-29T13:47:33;5.88;;;2.40;;
46447;SDS011;32145;50.390;30.778;2022-07-29T13:50:16;3.60;;;2.33;;
46447;SDS011;32145;50.390;30.778;2022-07-29T13:53:00;4.97;;;2.63;;
46447;SDS011;32145;50.390;30.778;2022-07-29T13:55:44;7.18;;;2.40;;
46447;SDS011;32145;50.390;30.778;2022-07-29T13:58:29;11.95;;;2.60;;
46447;SDS011;32145;50.390;30.778;2022-07-29T14:01:13;7.35;;;2.13;;
46447;SDS011;32145;50.390;30.778;2022-07-29T14:03:58;18.65;;;2.53;;
46447;SDS011;32145;50.390;30.778;2022-07-29T14:06:42;10.80;;;2.42;;
46447;SDS011;32145;50.390;30.778;2022-07-29T14:09:26;10.65;;;2.65;;
46447;SDS011;32145;50.390;30.778;2022-07-29T14:12:10;3.67;;;2.20;;
46447;SDS011;32145;50.390;30.778;2022-07-29T14:14:56;37.10;;;3.33;;
46447;SDS011;32145;50.390;30.778;2022-07-29T14:17:40;6.15;;;2.42;;
46447;SDS011;32145;50.390;30.778;2022-07-29T14:20:24;5.20;;;2.35;;
46447;SDS011;32145;50.390;30.778;2022-07-29T14:23:09;13.65;;;2.58;;
46447;SDS011;32145;50.390;30.778;2022-07-29T14:25:52;7.50;;;2.40;;
46447;SDS011;32145;50.390;30.778;2022-07-29T14:28:36;12.15;;;2.30;;
46447;SDS011;32145;50.390;30.778;2022-07-29T14:31:22;3.85;;;2.35;;
46447;SDS011;32145;50.390;30.778;2022-07-29T14:34:06;5.93;;;2.58;;
46447;SDS011;32145;50.390;30.778;2022-07-29T14:36:50;4.85;;;2.40;;
46447;SDS011;32145;50.390;30.778;2022-07-29T14:39:35;5.25;;;2.22;;
46447;SDS011;32145;50.390;30.778;2022-07-29T14:42:19;4.90;;;2.38;;
46447;SDS011;32145;50.390;30.778;2022-07-29T14:45:03;7.03;;;2.50;;
46447;SDS011;32145;50.390;30.778;2022-07-29T14:47:49;5.93;;;2.40;;
46447;SDS011;32145;50.390;30.778;2022-07-29T14:50:33;4.38;;;2.25;;
46447;SDS011;32145;50.390;30.778;2022-07-29T14:53:17;5.25;;;2.38;;
46447;SDS011;32145;50.390;30.778;2022-07-29T14:56:01;6.05;;;2.40;;
46447;SDS011;32145;50.390;30.778;2022-07-29T14:58:46;4.82;;;3.00;;
46447;SDS011;32145;50.390;30.778;2022-07-29T15:01:30;3.80;;;2.28;;
46447;SDS011;32145;50.390;30.778;2022-07-29T15:04:15;5.57;;;2.40;;
46447;SDS011;32145;50.390;30.778;2022-07-29T15:06:59;7.82;;;2.60;;
46447;SDS011;32145;50.390;30.778;2022-07-29T15:09:43;10.85;;;2.40;;
46447;SDS011;32145;50.390;30.778;2022-07-29T15:12:27;8.38;;;2.47;;
46447;SDS011;32145;50.390;30.778;2022-07-29T15:15:11;12.65;;;2.40;;
46447;SDS011;32145;50.390;30.778;2022-07-29T15:17:56;15.90;;;2.90;;
46447;SDS011;32145;50.390;30.778;2022-07-29T15:20:41;9.23;;;2.58;;
46447;SDS011;32145;50.390;30.778;2022-07-29T15:23:25;3.47;;;1.90;;
46447;SDS011;32145;50.390;30.778;2022-07-29T15:26:09;9.52;;;2.60;;
46447;SDS011;32145;50.390;30.778;2022-07-29T15:28:53;5.25;;;2.30;;
46447;SDS011;32145;50.390;30.778;2022-07-29T15:31:37;3.92;;;2.30;;
46447;SDS011;32145;50.390;30.778;2022-07-29T15:34:21;4.05;;;2.10;;
46447;SDS011;32145;50.390;30.778;2022-07-29T15:37:07;7.45;;;2.22;;
46447;SDS011;32145;50.390;30.778;2022-07-29T15:39:51;4.93;;;2.15;;
46447;SDS011;32145;50.390;30.778;2022-07-29T15:42:35;6.93;;;2.15;;
46447;SDS011;32145;50.390;30.778;2022-07-29T15:45:19;4.55;;;2.17;;
46447;SDS011;32145;50.390;30.778;2022-07-29T15:48:04;3.70;;;2.28;;
46447;SDS011;32145;50.390;30.778;2022-07-29T15:50:48;8.60;;;2.50;;
46447;SDS011;32145;50.390;30.778;2022-07-29T15:53:34;4.35;;;2.28;;
46447;SDS011;32145;50.390;30.778;2022-07-29T15:56:18;4.28;;;2.28;;
46447;SDS011;32145;50.390;30.778;2022-07-29T15:59:02;5.47;;;2.10;;
46447;SDS011;32145;50.390;30.778;2022-07-29T16:01:46;4.88;;;2.17;;
46447;SDS011;32145;50.390;30.778;2022-07-29T16:04:31;4.00;;;2.20;;
46447;SDS011;32145;50.390;30.778;2022-07-29T16:07:14;6.97;;;2.42;;
46447;SDS011;32145;50.390;30.778;2022-07-29T16:10:00;7.63;;;2.47;;
46447;SDS011;32145;50.390;30.778;2022-07-29T16:12:44;6.05;;;2.80;;
46447;SDS011;32145;50.390;30.778;2022-07-29T16:15:28;7.40;;;2.40;;
46447;SDS011;32145;50.390;30.778;2022-07-29T16:18:13;5.07;;;2.88;;
46447;SDS011;32145;50.390;30.778;2022-07-29T16:20:57;5.93;;;2.83;;
46447;SDS011;32145;50.390;30.778;2022-07-29T16:23:41;4.82;;;2.80;;
46447;SDS011;32145;50.390;30.778;2022-07-29T16:26:27;6.47;;;3.00;;
46447;SDS011;32145;50.390;30.778;2022-07-29T16:29:11;5.85;;;2.75;;
46447;SDS011;32145;50.390;30.778;2022-07-29T16:31:54;6.22;;;2.30;;
46447;SDS011;32145;50.390;30.778;2022-07-29T16:34:38;7.25;;;2.08;;
46447;SDS011;32145;50.390;30.778;2022-07-29T16:37:22;7.80;;;2.60;;
46447;SDS011;32145;50.390;30.778;2022-07-29T16:40:07;5.05;;;2.38;;